Latest Coastal Weather Observations for Mackay

IDQ60701

Issued at 12:12 am EST Saturday 28 May 2016 (issued every 10 minutes, with the page automatically refreshed every 10 minutes)

About coastal observations | Map of coastal stations | Coastal observations for QLD | Marine services | Other Formats
Station Details ID: 033119 Name: MACKAY M.O Lat: -21.12 Lon: 149.22 Height: 30.26 m
Data from the previous 72 hours. | See also: Recent months at Mackay
Date/Time
EST
Temp

°C
Wind Pressure Rain
since 9am
mm
Weather Cloud Vis
km
Sea
Height
m
Swell
Dir
 
Speed
knots
Gust
knots
hPa Trend Height
m
Period
s
Dir
28/12:00am 23.1 S 4 8 1012.3 - 0.0 - Mostly clear - - - - -
 
Date/Time
EST
Temp

°C
Wind Pressure Rain
since 9am
mm
Weather Cloud Vis
km
Sea
Height
m
Swell
Dir
 
Speed
knots
Gust
knots
hPa Trend Height
m
Period
s
Dir
27/11:30pm 23.5 NW 6 8 1011.6 - 0.0 - - - - - - -
27/11:00pm 23.8 NW 7 11 1011.5 - 0.0 - Partly cloudy - - - - -
27/10:30pm 24.1 NW 8 13 1011.6 - 0.0 - - - - - - -
27/10:00pm 24.5 NNW 10 15 1011.5 - 0.0 - - - - - - -
27/09:30pm 24.6 NNW 10 15 1011.4 - 0.0 - - - - - - -
27/09:00pm 24.5 NNW 10 15 1011.5 F 0.0 - - - - - - -
27/08:30pm 24.5 NNW 8 12 1011.4 - 0.0 - - - - - - -
27/08:00pm 24.7 NNW 9 14 1011.2 - 0.0 - - - - - - -
27/07:30pm 24.9 NNW 8 13 1011.1 - 0.0 - Partly cloudy - - - - -
27/07:00pm 24.9 N 9 13 1010.6 - 0.0 - - - - - - -
27/06:30pm 25.0 N 9 15 1010.3 - 0.0 - Partly cloudy - - - - -
27/06:00pm 25.1 N 10 16 1010.0 R 0.0 - - - - - - -
27/05:30pm 25.3 N 11 17 1009.8 - 0.0 - - - - - - -
27/05:00pm 26.0 N 11 21 1009.4 - 0.0 - - - - - - -
27/04:30pm 26.5 N 13 19 1009.2 - 0.0 - - - - - - -
27/04:00pm 27.1 N 13 22 1009.0 - 0.0 - - - - - - -
27/03:30pm 27.4 N 13 22 1008.8 - 0.0 - - - - - - -
27/03:00pm 28.2 N 12 20 1008.8 F 0.0 - - - - - - -
27/02:30pm 28.6 N 11 17 1009.1 - 0.0 - - - - - - -
27/02:00pm 29.2 N 10 17 1009.6 - 0.0 - - - - - - -
27/01:30pm 29.6 N 10 18 1009.7 - 0.0 - - - - - - -
27/01:00pm 29.5 N 13 22 1010.0 - 0.0 - - - - - - -
27/12:30pm 29.3 N 12 18 1010.6 - 0.0 - - - - - - -
27/12:00pm 28.7 NNW 11 18 1011.2 F 0.0 - - - - - - -
27/11:30am 29.4 NNW 9 15 1011.8 - 0.0 - - - - - - -
27/11:00am 28.1 NNW 12 18 1012.2 - 0.0 - - - - - - -
27/10:30am 27.6 NNW 12 20 1012.7 - 0.0 - - - - - - -
27/10:00am 27.2 NNW 11 19 1013.0 - 0.0 - - - - - - -
27/09:30am 26.2 NNW 12 21 1013.3 - 0.0 - - - - - - -
27/09:00am 25.6 NW 13 19 1013.3 F 0.0 - - - - - - -
27/08:30am 24.8 NNW 12 17 1013.3 - 0.0 - - - - - - -
27/08:00am 24.0 NNW 10 19 1013.2 - 0.0 - - - - - - -
27/07:30am 23.0 NNW 8 13 1013.0 - 0.0 - - - - - - -
27/07:00am 22.0 NNW 8 13 1012.6 - 0.0 - - - - - - -
27/06:30am 21.9 NW 5 8 1012.5 - 0.0 - - - - - - -
27/06:00am 21.8 NW 6 9 1012.2 F 0.0 - - - - - - -
27/05:30am 21.6 NNW 7 11 1012.0 - 0.0 - - - - - - -
27/05:00am 21.3 NW 5 7 1011.8 - 0.0 - - - - - - -
27/04:30am 21.3 NNW 7 10 1011.8 - 0.0 - - - - - - -
27/04:00am 20.8 NNW 6 9 1011.8 - 0.0 - - - - - - -
27/03:30am 20.9 NNW 6 8 1011.9 - 0.0 - - - - - - -
27/03:00am 20.7 NW 6 8 1012.0 - 0.0 - - - - - - -
27/02:30am 20.7 NW 6 9 1012.3 - 0.0 - - - - - - -
27/02:00am 21.0 NW 6 8 1012.5 - 0.0 - - - - - - -
27/01:30am 21.3 NW 4 6 1012.6 - 0.0 - - - - - - -
27/01:00am 21.5 NW 4 5 1013.0 - 0.0 - - - - - - -
27/12:30am 22.2 WNW 5 7 1013.1 - 0.0 - Partly cloudy - - - - -
27/12:00am 22.4 NW 5 6 1013.0 - 0.0 - - - - - - -
 
Date/Time
EST
Temp

°C
Wind Pressure Rain
since 9am
mm
Weather Cloud Vis
km
Sea
Height
m
Swell
Dir
 
Speed
knots
Gust
knots
hPa Trend Height
m
Period
s
Dir
26/11:30pm 22.6 NNW 7 9 1013.1 - 0.0 - - - - - - -
26/11:00pm 22.7 NNW 7 10 1013.3 - 0.0 - - - - - - -
26/10:30pm 22.8 N 6 7 1013.5 - 0.0 - - - - - - -
26/10:00pm 22.9 N 6 8 1013.8 - 0.0 - - - - - - -
26/09:30pm 22.9 N 6 9 1014.1 - 0.0 - - - - - - -
26/09:00pm 23.0 N 6 9 1014.3 F 0.0 - - - - - - -
26/08:30pm 23.0 N 6 9 1014.3 - 0.0 - - - - - - -
26/08:00pm 23.0 N 5 7 1014.2 - 0.0 - - - - - - -
26/07:30pm 23.1 N 5 8 1014.0 - 0.0 - - - - - - -
26/07:00pm 23.0 N 5 7 1013.7 - 0.0 - - - - - - -
26/06:30pm 22.9 N 4 6 1013.4 - 0.0 - - - - - - -
26/06:00pm 23.2 N 5 8 1012.9 F 0.0 - - - - - - -
26/05:30pm 23.7 N 6 10 1012.6 - 0.0 - Mostly clear 10 - - - -
26/05:00pm 24.5 N 6 10 1012.3 - 0.0 - Mostly clear 10 - - - -
26/04:30pm 25.5 NNE 6 11 1012.1 - 0.0 - Mostly clear 10 - - - -
26/04:00pm 26.3 NNE 6 10 1012.3 - 0.0 - - - - - - -
26/03:30pm 27.0 NNE 6 12 1012.6 - 0.0 - Mostly clear 10 - - - -
26/03:06pm 27.4 NNE 6 11 1012.8 - 0.0 - Mostly clear 10 - - - -
26/03:00pm 27.7 NNE 6 11 1012.9 F 0.0 - - - - - - -
26/02:30pm 28.0 N 6 11 1013.2 - 0.0 - Mostly clear 10 - - - -
26/02:00pm 27.6 NNE 7 11 1013.6 - 0.0 - Mostly clear 10 - - - -
26/01:30pm 28.0 N 7 11 1014.1 - 0.0 - - - - - - -
26/01:00pm 28.4 NNE 6 12 1014.6 - 0.0 - Mostly clear 10 - - - -
26/12:30pm 28.2 N 6 10 1015.0 - 0.0 - Partly cloudy 10 - - - -
26/12:00pm 27.6 NNE 5 9 1015.5 F 0.0 - Partly cloudy 10 - - - -
26/11:30am 26.4 NNE 4 8 1015.9 - 0.0 - Partly cloudy 10 - - - -
26/11:00am 26.1 N 3 7 1016.3 - 0.0 - Partly cloudy 10 - - - -
26/10:30am 26.8 NE 4 9 1016.5 - 0.0 - Partly cloudy 10 - - - -
26/10:00am 25.5 ESE 1 5 1016.7 - 0.0 - Partly cloudy 10 - - - -
26/09:30am 24.0 WSW 3 5 1016.8 - 0.0 - Mostly clear 10 - - - -
26/09:00am 22.5 SW 4 6 1016.9 F 0.2 - Mostly clear 10 - - - -
26/08:30am 21.1 SW 6 9 1016.8 - 0.2 - Mostly clear 10 - - - -
26/08:00am 19.9 WSW 6 8 1016.6 - 0.2 - Mostly clear 10 - - - -
26/07:30am 19.1 SW 6 9 1016.5 - 0.2 - Mostly clear 10 - - - -
26/07:00am 18.6 SW 7 9 1016.2 - 0.2 - Mostly clear 10 - - - -
26/06:30am 18.6 WSW 7 8 1016.0 - 0.0 - - - - - - -
26/06:00am 18.6 WSW 7 8 1015.7 F 0.0 - Mostly clear - - - - -
26/05:30am 18.7 WSW 6 9 1015.5 - 0.0 - - - - - - -
26/05:00am 18.6 WSW 6 8 1015.5 - 0.0 - - - - - - -
26/04:30am 18.8 WSW 6 8 1015.6 - 0.0 - - - - - - -
26/04:00am 18.9 WSW 7 8 1015.4 - 0.0 - - - - - - -
26/03:30am 19.1 SW 6 8 1015.6 - 0.0 - - - - - - -
26/03:00am 19.2 WSW 7 8 1015.6 - 0.0 - - - - - - -
26/02:30am 19.4 WSW 5 8 1015.8 - 0.0 - - - - - - -
26/02:00am 19.5 SW 7 8 1016.1 - 0.0 - - - - - - -
26/01:30am 19.4 WSW 6 8 1016.2 - 0.0 - - - - - - -
26/01:00am 19.5 WSW 6 8 1016.4 - 0.0 - - - - - - -
26/12:30am 19.6 SW 7 8 1016.4 - 0.0 - - - - - - -
26/12:00am 19.8 SW 6 8 1016.5 - 0.0 - - - - - - -
 
Date/Time
EST
Temp

°C
Wind Pressure Rain
since 9am
mm
Weather Cloud Vis
km
Sea
Height
m
Swell
Dir
 
Speed
knots
Gust
knots
hPa Trend Height
m
Period
s
Dir
25/11:30pm 20.0 WSW 5 7 1016.8 - 0.0 - - - - - - -
25/11:00pm 20.0 SW 6 7 1017.1 - 0.0 - - - - - - -
25/10:30pm 20.2 WSW 5 6 1017.1 - 0.0 - Partly cloudy - - - - -
25/10:00pm 20.4 SW 5 6 1017.1 - 0.0 - Partly cloudy - - - - -
25/09:30pm 20.7 SW 5 6 1017.2 - 0.0 - - - - - - -
25/09:00pm 21.8 SE 1 5 1017.3 R 0.0 - - - - - - -
25/08:30pm 22.1 NNE 1 3 1017.0 - 0.0 - - - - - - -
25/08:00pm 22.5 ENE 4 6 1016.7 - 0.0 - - - - - - -
25/07:30pm 22.9 E 4 6 1016.3 - 0.0 - - - - - - -
25/07:00pm 22.8 ESE 4 6 1016.2 - 0.0 - - - - - - -
25/06:30pm 23.0 E 4 5 1015.7 - 0.0 - - - - - - -
25/06:00pm 22.8 E 5 6 1015.5 R 0.0 - Mostly clear 10 - - - -
25/05:30pm 23.1 E 6 8 1015.1 - 0.0 - Mostly clear 10 - - - -
25/05:00pm 23.4 ESE 5 7 1015.0 - 0.0 - Mostly clear 10 - - - -
25/04:30pm 23.8 ESE 5 9 1015.0 - 0.0 - Mostly clear 10 - - - -
25/04:00pm 24.1 ESE 6 9 1014.6 - 0.0 - Mostly clear 10 - - - -
25/03:30pm 24.6 SE 7 10 1014.6 - 0.0 - Mostly clear 10 - - - -
25/03:00pm 24.7 SE 7 12 1014.4 - 0.0 - Mostly clear 10 - - - -
25/02:30pm 24.4 SE 5 10 1014.6 - 0.0 - Mostly clear 10 - - - -
25/02:00pm 24.8 SE 7 11 1015.3 - 0.0 - Mostly clear 10 - - - -
25/01:30pm 24.9 SE 6 10 1015.5 - 0.0 - Mostly clear 10 - - - -
25/01:00pm 25.0 SE 7 11 1016.0 - 0.0 - Mostly clear 10 - - - -
25/12:30pm 25.0 ESE 6 10 - - 0.0 - - - - - - -
25/12:00pm 24.5 SE 6 11 - - 0.0 - - - - - - -
25/11:30am 24.7 SE 5 9 1017.4 - 0.0 - Mostly clear 10 - - - -
25/11:00am 24.2 SSE 6 9 1017.5 - 0.0 - Mostly clear 10 - - - -
25/10:30am 23.5 S 7 9 1017.5 - 0.0 - Mostly clear 10 - - - -
25/10:00am 23.1 SSW 5 7 1017.4 - 0.0 - Mostly clear 10 - - - -
25/09:30am 23.0 SSW 6 8 1017.3 - 0.0 - Mostly clear 10 - - - -
25/09:00am 21.2 SW 6 8 1016.9 - 0.2 - Mostly clear 10 - - - -
25/08:30am 20.5 WSW 4 6 - - 0.2 - - - - - - -
25/08:00am 19.8 SW 6 8 - - 0.2 - - - - - - -
25/07:30am 19.4 SW 7 9 - - 0.2 - - - - - - -
25/07:00am 19.2 SW 7 9 - - 0.2 - - - - - - -
25/06:30am 19.3 SW 7 9 - - 0.2 - - - - - - -
25/06:00am 19.3 WSW 6 8 - - 0.2 - Partly cloudy - - - - -
25/05:30am 19.2 SW 7 9 - - 0.2 - - - - - - -
25/05:00am 19.4 SW 6 7 - - 0.2 - - - - - - -
25/04:30am 19.5 SW 6 7 - - 0.2 - Partly cloudy - - - - -
25/04:00am 19.8 SW 6 8 - - 0.2 - Partly cloudy - - - - -
25/03:30am 20.1 SW 7 9 - - 0.2 - Cloudy - - - - -
25/03:00am 20.2 SW 5 7 - - 0.2 - Mostly cloudy - - - - -
25/02:30am 20.5 W 5 6 - - 0.2 - Cloudy - - - - -
25/02:00am 20.7 WSW 5 7 - - 0.2 - Cloudy - - - - -
25/01:30am 20.6 WSW 5 7 - - 0.2 - Cloudy - - - - -
25/01:00am 20.6 WSW 5 8 - - 0.2 - - - - - - -
25/12:30am 20.7 WSW 5 6 - - 0.2 - - - - - - -

Other Formats:

Comma delimited format used in spreadsheet applications
http://www.bom.gov.au/fwo/IDQ60701/IDQ60701.94367.axf

JavaScript Object Notation format (JSON) in row-major order
http://www.bom.gov.au/fwo/IDQ60701/IDQ60701.94367.json